Tropical Cyclones
[Index]
Main Index Home Page Stock Weather Photos Extreme Storms Discussion Storm News and Storm Chasing Reports Tropical Cyclones / Hurricanes / Typhoons Weather Data and Links Wild Fires / Bushfires Weather Observation Techniques Weather Picture Catalogue Tornado Pictures and Reports Stock Video Footage and DVDs for sale
Season 1992-1993 Tropical Cyclone EDWINA Track Map
Season 1992-1993 Summaries: [BoM-AU] [JTWC-AU] [JTWC-SIO] [JTWC-SPAC] [JTWC-SH]
<<- Previous TC | JTWC 1992-1993 Season | Next TC ->>

click for intensity scale information  Lat/long Grid: Show Hide

 Date Labels: Show Hide

Joint Typhoon Warning Centre Cyclone Data

Name: EDWINA

16 Jan 1993 00:00 UTC to 30 Jan 1993 00:00 UTC

    date/time    lat    long     hPa   cat  kts
1993-01-16 00    6.3    90.5                  10          
1993-01-16 06    6.6    90.2                  15          
1993-01-16 12    6.9    89.8                  15          
1993-01-16 18    7.2    89.4                  15          
1993-01-17 00    7.4    88.9                  15          
1993-01-17 06    7.6    88.4                  20          
1993-01-17 12    7.8    88.0                  20          
1993-01-17 18    8.0    87.6                  20          
1993-01-18 00    8.2    87.2                  20          
1993-01-18 06    8.5    86.9                  20          
1993-01-18 12    8.8    86.6                  25          
1993-01-18 18    9.1    86.3                  25          
1993-01-19 00    9.4    86.0                  25          
1993-01-19 06    9.7    85.8                  25          
1993-01-19 12   10.0    85.6                  30          
1993-01-19 18   10.4    85.4                  30          
1993-01-20 00   10.8    85.3                  30          
1993-01-20 06   11.2    85.2                  30          
1993-01-20 12   11.7    85.0                  35          
1993-01-20 18   12.1    84.7                  35          
1993-01-21 00   12.4    84.2            1     40          
1993-01-21 06   12.7    83.5            1     45          
1993-01-21 12   13.0    82.8            1     45          
1993-01-21 18   13.1    82.0            1     50          
1993-01-22 00   13.2    81.1            1     50          
1993-01-22 06   13.3    80.1            1     50          
1993-01-22 12   13.4    79.0            2     55          
1993-01-22 18   13.5    77.8            2     55          
1993-01-23 00   13.6    76.6            2     55          
1993-01-23 06   13.7    75.4            2     60          
1993-01-23 12   13.8    74.2            2     65          
1993-01-23 18   14.0    73.0            3     80          
1993-01-24 00   14.2    71.8            3     95          
1993-01-24 06   14.5    70.6            4    105          
1993-01-24 12   14.7    69.5            4    110          
1993-01-24 18   15.0    68.4            4    110          
1993-01-25 00   15.2    67.3            4    105          
1993-01-25 06   15.5    66.2            4    100          
1993-01-25 12   15.7    65.1            4    100          
1993-01-25 18   16.0    64.1            3     95          
1993-01-26 00   16.4    63.3            3     95          
1993-01-26 06   16.9    62.5            3     90          
1993-01-26 12   17.5    61.7            3     90          
1993-01-26 18   18.2    61.0            3     90          
1993-01-27 00   19.0    60.5            3     95          
1993-01-27 06   19.9    60.0            4    100          
1993-01-27 12   20.9    59.8            4    100          
1993-01-27 18   22.0    59.6            4    100          
1993-01-28 00   23.2    59.5            3     95          
1993-01-28 06   24.6    59.3            3     95          
1993-01-28 12   26.2    59.3            3     95          
1993-01-28 18   28.0    59.4            3     90          
1993-01-29 00   29.9    59.3            3     85          
1993-01-29 06   31.7    59.0            3     75          
1993-01-29 12   33.5    58.7            2     65          
1993-01-29 18   35.3    58.8            1     50          
1993-01-30 00   37.0    59.3            1     40          
Winds are 1-min average.

Tropical cyclone tracks developed by Michael Bath using data from the Joint Typhoon Warning Centre Best Tracks and Google Maps.


[Australian Severe Weather index] [Copyright Notice] [Email Contacts] [Search This Site] [Privacy Policy]
Document: tropical_cyclone_edwina.htm Updated: 18 September 2016